createdAt,value
2019-05-19T00:00:25.000Z,76
2019-05-19T00:01:50.000Z,76
2019-05-19T00:03:56.000Z,77
2019-05-19T00:05:25.000Z,77
2019-05-19T00:07:31.000Z,76
2019-05-19T00:08:59.000Z,77
2019-05-19T00:11:04.000Z,77
2019-05-19T00:12:32.000Z,77
2019-05-19T00:14:38.000Z,77
2019-05-19T00:16:05.000Z,78
2019-05-19T00:18:08.000Z,78
2019-05-19T00:19:37.000Z,78
2019-05-19T00:21:46.000Z,78
2019-05-19T00:23:09.000Z,77
2019-05-19T00:25:14.000Z,78
2019-05-19T00:26:38.000Z,78
2019-05-19T00:28:48.000Z,79
2019-05-19T00:30:16.000Z,79
2019-05-19T00:32:20.000Z,78
2019-05-19T00:33:51.000Z,78
2019-05-19T00:36:00.000Z,78
2019-05-19T00:37:25.000Z,78
2019-05-19T00:39:34.000Z,78
2019-05-19T00:41:04.000Z,78
2019-05-19T00:43:13.000Z,79
2019-05-19T00:44:37.000Z,79
2019-05-19T00:46:40.000Z,79
2019-05-19T00:48:11.000Z,79
2019-05-19T00:50:22.000Z,80
2019-05-19T00:51:53.000Z,79
2019-05-19T00:54:00.000Z,79
2019-05-19T00:55:25.000Z,79
2019-05-19T00:57:37.000Z,79
2019-05-19T00:59:05.000Z,79
2019-05-19T01:01:12.000Z,80
2019-05-19T01:02:43.000Z,80
2019-05-19T01:04:49.000Z,80
2019-05-19T01:06:16.000Z,80
2019-05-19T01:08:24.000Z,80
2019-05-19T01:09:49.000Z,80
2019-05-19T01:12:00.000Z,80
2019-05-19T01:13:28.000Z,80
2019-05-19T01:15:41.000Z,80
2019-05-19T01:17:09.000Z,80
2019-05-19T01:19:15.000Z,81
2019-05-19T01:20:44.000Z,81
2019-05-19T01:22:55.000Z,81
2019-05-19T01:24:28.000Z,81
2019-05-19T01:26:39.000Z,81
2019-05-19T01:28:09.000Z,81
2019-05-19T01:30:18.000Z,81
2019-05-19T01:31:49.000Z,81
2019-05-19T01:33:57.000Z,81
2019-05-19T01:35:26.000Z,81
2019-05-19T01:37:34.000Z,82
2019-05-19T01:39:04.000Z,82
2019-05-19T01:42:48.000Z,82
2019-05-19T01:43:40.000Z,82
2019-05-19T01:45:09.000Z,82
2019-05-19T01:47:18.000Z,82
2019-05-19T01:48:47.000Z,82
2019-05-19T01:51:00.000Z,82
2019-05-19T01:52:33.000Z,82
2019-05-19T01:55:59.000Z,82
2019-05-19T01:57:21.000Z,82
2019-05-19T01:59:22.000Z,82
2019-05-19T02:00:44.000Z,82
2019-05-19T02:02:46.000Z,82
2019-05-19T02:04:08.000Z,81
2019-05-19T02:06:10.000Z,81
2019-05-19T02:07:33.000Z,82
2019-05-19T02:09:34.000Z,82
2019-05-19T02:10:56.000Z,82
2019-05-19T02:12:57.000Z,82
2019-05-19T02:14:20.000Z,81
2019-05-19T02:16:21.000Z,82
2019-05-19T02:17:43.000Z,82
2019-05-19T02:19:44.000Z,83
2019-05-19T02:21:06.000Z,83
2019-05-19T02:23:07.000Z,83
2019-05-19T02:24:29.000Z,83
2019-05-19T02:26:30.000Z,83
2019-05-19T02:27:52.000Z,83
2019-05-19T02:29:53.000Z,83
2019-05-19T02:31:15.000Z,83
2019-05-19T02:33:17.000Z,83
2019-05-19T02:34:39.000Z,83
2019-05-19T02:36:41.000Z,84
2019-05-19T02:38:04.000Z,84
2019-05-19T02:40:05.000Z,83
2019-05-19T02:41:27.000Z,83
2019-05-19T02:43:30.000Z,83
2019-05-19T02:44:53.000Z,83
2019-05-19T02:46:54.000Z,83
2019-05-19T02:48:18.000Z,83
2019-05-19T02:50:19.000Z,84
2019-05-19T02:51:42.000Z,84
2019-05-19T02:53:44.000Z,84
2019-05-19T02:55:06.000Z,84
2019-05-19T02:57:08.000Z,84
2019-05-19T02:58:31.000Z,84
2019-05-19T03:00:34.000Z,84
2019-05-19T03:01:57.000Z,84
2019-05-19T03:03:58.000Z,84
2019-05-19T03:05:22.000Z,84
2019-05-19T03:07:24.000Z,84
2019-05-19T03:08:47.000Z,83
2019-05-19T03:10:53.000Z,83
2019-05-19T03:12:16.000Z,83
2019-05-19T03:14:19.000Z,83
2019-05-19T03:15:41.000Z,83
2019-05-19T03:17:42.000Z,83
2019-05-19T03:19:08.000Z,83
2019-05-19T03:21:11.000Z,84
2019-05-19T03:22:35.000Z,84
2019-05-19T03:24:37.000Z,84
2019-05-19T03:26:00.000Z,84
2019-05-19T03:28:02.000Z,84
2019-05-19T03:29:24.000Z,84
2019-05-19T03:31:26.000Z,84
2019-05-19T03:32:48.000Z,84
2019-05-19T03:34:52.000Z,84
2019-05-19T03:36:16.000Z,84
2019-05-19T03:38:19.000Z,84
2019-05-19T03:39:44.000Z,84
2019-05-19T03:41:48.000Z,84
2019-05-19T03:43:11.000Z,84
2019-05-19T03:45:15.000Z,84
2019-05-19T03:46:39.000Z,84
2019-05-19T03:48:41.000Z,84
2019-05-19T03:50:03.000Z,84
2019-05-19T03:52:06.000Z,84
2019-05-19T03:53:28.000Z,84
2019-05-19T03:55:30.000Z,84
2019-05-19T03:56:52.000Z,84
2019-05-19T03:58:54.000Z,84
2019-05-19T04:00:18.000Z,84
2019-05-19T04:02:20.000Z,84
2019-05-19T04:03:43.000Z,84
2019-05-19T04:05:48.000Z,84
2019-05-19T04:07:14.000Z,84
2019-05-19T04:09:16.000Z,84
2019-05-19T04:10:39.000Z,84
2019-05-19T04:12:42.000Z,84
2019-05-19T04:14:11.000Z,84
2019-05-19T04:16:14.000Z,84
2019-05-19T04:17:40.000Z,84
2019-05-19T04:19:44.000Z,84
2019-05-19T04:21:10.000Z,84
2019-05-19T04:23:12.000Z,84
2019-05-19T04:24:36.000Z,84
2019-05-19T04:26:40.000Z,84
2019-05-19T04:28:05.000Z,84
2019-05-19T04:30:07.000Z,84
2019-05-19T04:31:33.000Z,84
2019-05-19T04:33:40.000Z,84
2019-05-19T04:35:06.000Z,84
2019-05-19T04:37:12.000Z,84
2019-05-19T04:38:37.000Z,84
2019-05-19T04:40:46.000Z,84
2019-05-19T04:42:14.000Z,84
2019-05-19T04:44:22.000Z,85
2019-05-19T04:45:52.000Z,84
2019-05-19T04:47:56.000Z,84
2019-05-19T04:49:19.000Z,85
2019-05-19T04:51:26.000Z,85
2019-05-19T04:52:57.000Z,84
2019-05-19T04:54:59.000Z,85
2019-05-19T04:56:21.000Z,84
2019-05-19T04:58:28.000Z,84
2019-05-19T04:59:56.000Z,84
2019-05-19T05:02:05.000Z,84
2019-05-19T05:03:31.000Z,84
2019-05-19T05:05:41.000Z,84
2019-05-19T05:07:04.000Z,84
2019-05-19T05:09:14.000Z,83
2019-05-19T05:10:36.000Z,83
2019-05-19T05:12:46.000Z,83
2019-05-19T05:14:10.000Z,83
2019-05-19T05:16:15.000Z,83
2019-05-19T05:17:47.000Z,83
2019-05-19T05:19:54.000Z,83
2019-05-19T05:21:18.000Z,83
2019-05-19T05:23:28.000Z,83
2019-05-19T05:24:57.000Z,82
2019-05-19T05:27:03.000Z,82
2019-05-19T05:28:34.000Z,82
2019-05-19T05:30:39.000Z,82
2019-05-19T05:32:10.000Z,82
2019-05-19T05:34:22.000Z,81
2019-05-19T05:35:51.000Z,81
2019-05-19T05:37:56.000Z,81
2019-05-19T05:39:26.000Z,80
2019-05-19T05:41:33.000Z,81
2019-05-19T05:42:59.000Z,81
2019-05-19T05:45:02.000Z,81
2019-05-19T05:46:34.000Z,81
2019-05-19T05:48:42.000Z,80
2019-05-19T05:50:12.000Z,80
2019-05-19T05:52:22.000Z,80
2019-05-19T05:54:10.000Z,80
2019-05-19T05:56:17.000Z,79
2019-05-19T05:57:50.000Z,79
2019-05-19T05:59:59.000Z,79
2019-05-19T06:01:34.000Z,79
2019-05-19T06:03:41.000Z,79
2019-05-19T06:05:12.000Z,78
2019-05-19T06:07:27.000Z,78
2019-05-19T06:08:57.000Z,77
2019-05-19T06:11:10.000Z,78
2019-05-19T06:12:42.000Z,77
2019-05-19T06:14:51.000Z,77
2019-05-19T06:16:24.000Z,76
2019-05-19T06:18:37.000Z,75
2019-05-19T06:20:02.000Z,75
2019-05-19T06:22:12.000Z,75
2019-05-19T06:23:44.000Z,75
2019-05-19T06:25:54.000Z,75
2019-05-19T06:27:27.000Z,75
2019-05-19T06:29:35.000Z,75
2019-05-19T06:31:07.000Z,74
2019-05-19T06:33:16.000Z,75
2019-05-19T06:34:47.000Z,74
2019-05-19T06:36:56.000Z,75
2019-05-19T06:38:22.000Z,75
2019-05-19T06:40:32.000Z,75
2019-05-19T06:42:07.000Z,74
2019-05-19T06:45:30.000Z,74
2019-05-19T06:46:52.000Z,74
2019-05-19T06:48:54.000Z,74
2019-05-19T06:50:16.000Z,74
2019-05-19T06:52:18.000Z,73
2019-05-19T06:53:40.000Z,74
2019-05-19T06:55:41.000Z,73
2019-05-19T06:57:03.000Z,73
2019-05-19T06:59:03.000Z,73
2019-05-19T07:00:26.000Z,73
2019-05-19T07:02:27.000Z,72
2019-05-19T07:03:50.000Z,72
2019-05-19T07:05:52.000Z,73
2019-05-19T07:07:14.000Z,72
2019-05-19T07:09:15.000Z,72
2019-05-19T07:10:38.000Z,72
2019-05-19T07:12:40.000Z,72
2019-05-19T07:14:02.000Z,72
2019-05-19T07:16:05.000Z,71
2019-05-19T07:17:28.000Z,71
2019-05-19T07:19:29.000Z,71
2019-05-19T07:20:51.000Z,71
2019-05-19T07:22:52.000Z,71
2019-05-19T07:24:16.000Z,71
2019-05-19T07:26:17.000Z,70
2019-05-19T07:27:40.000Z,70
2019-05-19T07:29:42.000Z,70
2019-05-19T07:31:05.000Z,70
2019-05-19T07:33:07.000Z,70
2019-05-19T07:34:30.000Z,69
2019-05-19T07:36:31.000Z,69
2019-05-19T07:37:54.000Z,68
2019-05-19T07:39:55.000Z,68
2019-05-19T07:41:18.000Z,67
2019-05-19T07:43:20.000Z,67
2019-05-19T07:44:43.000Z,67
2019-05-19T07:46:47.000Z,67
2019-05-19T07:48:10.000Z,67
2019-05-19T07:50:11.000Z,66
2019-05-19T07:51:35.000Z,66
2019-05-19T07:53:36.000Z,66
2019-05-19T07:55:06.000Z,66
2019-05-19T07:57:08.000Z,67
2019-05-19T07:58:32.000Z,67
2019-05-19T08:00:36.000Z,67
2019-05-19T08:01:58.000Z,67
2019-05-19T08:03:59.000Z,68
2019-05-19T08:05:21.000Z,67
2019-05-19T08:07:22.000Z,67
2019-05-19T08:08:47.000Z,68
2019-05-19T08:10:48.000Z,67
2019-05-19T08:12:10.000Z,67
2019-05-19T08:14:12.000Z,67
2019-05-19T08:15:36.000Z,67
2019-05-19T08:17:40.000Z,67
2019-05-19T08:19:03.000Z,67
2019-05-19T08:21:08.000Z,67
2019-05-19T08:22:31.000Z,66
2019-05-19T08:24:34.000Z,67
2019-05-19T08:25:57.000Z,66
2019-05-19T08:27:58.000Z,66
2019-05-19T08:29:30.000Z,65
2019-05-19T08:31:34.000Z,65
2019-05-19T08:32:59.000Z,65
2019-05-19T08:35:00.000Z,65
2019-05-19T08:36:26.000Z,65
2019-05-19T08:38:27.000Z,64
2019-05-19T08:39:49.000Z,64
2019-05-19T08:41:56.000Z,64
2019-05-19T08:43:24.000Z,64
2019-05-19T08:45:29.000Z,65
2019-05-19T08:46:58.000Z,64
2019-05-19T08:49:00.000Z,63
2019-05-19T08:50:27.000Z,63
2019-05-19T08:52:33.000Z,63
2019-05-19T08:53:58.000Z,62
2019-05-19T08:56:02.000Z,62
2019-05-19T08:57:31.000Z,62
2019-05-19T08:59:33.000Z,62
2019-05-19T09:01:00.000Z,62
2019-05-19T09:03:05.000Z,61
2019-05-19T09:04:29.000Z,60
2019-05-19T09:06:35.000Z,61
2019-05-19T09:08:01.000Z,60
2019-05-19T09:10:07.000Z,60
2019-05-19T09:11:35.000Z,60
2019-05-19T09:13:38.000Z,59
2019-05-19T09:15:08.000Z,59
2019-05-19T09:17:16.000Z,59
2019-05-19T09:18:42.000Z,57
2019-05-19T09:20:49.000Z,57
2019-05-19T09:22:11.000Z,58
2019-05-19T09:24:15.000Z,57
2019-05-19T09:25:52.000Z,57
2019-05-19T09:27:56.000Z,57
2019-05-19T09:29:19.000Z,56
2019-05-19T09:31:27.000Z,57
2019-05-19T09:32:54.000Z,56
2019-05-19T09:35:03.000Z,54
2019-05-19T09:36:30.000Z,55
2019-05-19T09:38:33.000Z,56
2019-05-19T09:40:00.000Z,55
2019-05-19T09:42:04.000Z,53
2019-05-19T09:43:30.000Z,54
2019-05-19T09:45:39.000Z,54
2019-05-19T09:47:04.000Z,54
2019-05-19T09:49:09.000Z,54
2019-05-19T09:50:34.000Z,54
2019-05-19T09:52:39.000Z,53
2019-05-19T09:54:06.000Z,53
2019-05-19T09:56:15.000Z,52
2019-05-19T09:57:46.000Z,52
2019-05-19T09:59:56.000Z,53
2019-05-19T10:01:21.000Z,52
2019-05-19T10:03:23.000Z,51
2019-05-19T10:04:48.000Z,51
2019-05-19T10:06:51.000Z,51
2019-05-19T10:08:17.000Z,51
2019-05-19T10:10:27.000Z,51
2019-05-19T10:11:57.000Z,52
2019-05-19T10:14:01.000Z,49
2019-05-19T10:15:28.000Z,49
2019-05-19T10:17:34.000Z,49
2019-05-19T10:19:06.000Z,50
2019-05-19T10:21:15.000Z,48
2019-05-19T10:22:47.000Z,48
2019-05-19T10:24:56.000Z,48
2019-05-19T10:26:47.000Z,49
2019-05-19T10:28:54.000Z,50
2019-05-19T10:30:22.000Z,49
2019-05-19T10:32:39.000Z,48
2019-05-19T10:34:07.000Z,50
2019-05-19T10:36:14.000Z,49
2019-05-19T10:37:38.000Z,47
2019-05-19T10:39:46.000Z,48
2019-05-19T10:41:16.000Z,48
2019-05-19T10:43:25.000Z,48
2019-05-19T10:44:55.000Z,47
2019-05-19T10:47:02.000Z,47
2019-05-19T10:48:32.000Z,46
2019-05-19T10:50:40.000Z,45
2019-05-19T10:52:07.000Z,45
2019-05-19T10:54:18.000Z,45
2019-05-19T10:55:49.000Z,46
2019-05-19T10:57:57.000Z,45
2019-05-19T10:59:27.000Z,46
2019-05-19T11:01:40.000Z,46
2019-05-19T11:03:09.000Z,43
2019-05-19T11:05:18.000Z,45
2019-05-19T11:06:42.000Z,45
2019-05-19T11:08:51.000Z,44
2019-05-19T11:10:20.000Z,45
2019-05-19T11:12:32.000Z,43
2019-05-19T11:13:57.000Z,45
2019-05-19T11:16:09.000Z,44
2019-05-19T11:17:46.000Z,44
2019-05-19T11:19:54.000Z,43
2019-05-19T11:21:25.000Z,43
2019-05-19T11:23:30.000Z,42
2019-05-19T11:24:58.000Z,43
2019-05-19T11:27:07.000Z,42
2019-05-19T11:28:40.000Z,42
2019-05-19T11:30:53.000Z,42
2019-05-19T11:32:29.000Z,43
2019-05-19T11:35:48.000Z,42
2019-05-19T11:37:10.000Z,42
2019-05-19T11:39:11.000Z,42
2019-05-19T11:40:33.000Z,43
2019-05-19T11:42:34.000Z,43
2019-05-19T11:43:56.000Z,42
2019-05-19T11:45:57.000Z,43
2019-05-19T11:47:19.000Z,43
2019-05-19T11:49:21.000Z,41
2019-05-19T11:50:44.000Z,42
2019-05-19T11:52:46.000Z,39
2019-05-19T11:54:08.000Z,41
2019-05-19T11:56:10.000Z,41
2019-05-19T11:57:33.000Z,41
2019-05-19T11:59:34.000Z,40
2019-05-19T12:00:56.000Z,41
2019-05-19T12:02:57.000Z,40
2019-05-19T12:04:20.000Z,41
2019-05-19T12:06:21.000Z,42
2019-05-19T12:07:43.000Z,42
2019-05-19T12:09:44.000Z,41
2019-05-19T12:11:07.000Z,42
2019-05-19T12:13:08.000Z,41
2019-05-19T12:14:30.000Z,41
2019-05-19T12:16:30.000Z,41
2019-05-19T12:17:52.000Z,40
2019-05-19T12:19:53.000Z,40
2019-05-19T12:21:15.000Z,40
2019-05-19T12:23:16.000Z,42
2019-05-19T12:24:38.000Z,42
2019-05-19T12:26:40.000Z,42
2019-05-19T12:28:02.000Z,42
2019-05-19T12:30:05.000Z,39
2019-05-19T12:31:27.000Z,40
2019-05-19T12:33:29.000Z,40
2019-05-19T12:34:52.000Z,40
2019-05-19T12:36:53.000Z,40
2019-05-19T12:38:16.000Z,39
2019-05-19T12:40:17.000Z,39
2019-05-19T12:41:38.000Z,38
2019-05-19T12:43:39.000Z,39
2019-05-19T12:45:02.000Z,41
2019-05-19T12:47:06.000Z,41
2019-05-19T12:48:29.000Z,41
2019-05-19T12:50:30.000Z,40
2019-05-19T12:51:52.000Z,39
2019-05-19T12:53:55.000Z,39
2019-05-19T12:55:17.000Z,39
2019-05-19T12:57:19.000Z,38
2019-05-19T12:58:44.000Z,39
2019-05-19T13:00:47.000Z,39
2019-05-19T13:02:09.000Z,39
2019-05-19T13:04:10.000Z,38
2019-05-19T13:05:32.000Z,38
2019-05-19T13:07:33.000Z,39
2019-05-19T13:09:00.000Z,38
2019-05-19T13:11:03.000Z,38
2019-05-19T13:12:25.000Z,39
2019-05-19T13:14:27.000Z,38
2019-05-19T13:15:52.000Z,39
2019-05-19T13:17:55.000Z,40
2019-05-19T13:19:17.000Z,40
2019-05-19T13:21:20.000Z,40
2019-05-19T13:22:42.000Z,40
2019-05-19T13:24:44.000Z,39
2019-05-19T13:26:06.000Z,39
2019-05-19T13:28:08.000Z,39
2019-05-19T13:29:31.000Z,38
2019-05-19T13:31:33.000Z,38
2019-05-19T13:32:59.000Z,37
2019-05-19T13:35:02.000Z,38
2019-05-19T13:36:25.000Z,37
2019-05-19T13:38:32.000Z,39
2019-05-19T13:39:55.000Z,39
2019-05-19T13:41:56.000Z,39
2019-05-19T13:43:20.000Z,37
2019-05-19T13:45:24.000Z,38
2019-05-19T13:46:47.000Z,38
2019-05-19T13:48:53.000Z,39
2019-05-19T13:50:18.000Z,39
2019-05-19T13:52:25.000Z,39
2019-05-19T13:53:50.000Z,41
2019-05-19T13:55:57.000Z,44
2019-05-19T13:57:23.000Z,45
2019-05-19T13:59:29.000Z,46
2019-05-19T14:00:53.000Z,47
2019-05-19T14:02:59.000Z,47
2019-05-19T14:04:25.000Z,47
2019-05-19T14:06:31.000Z,48
2019-05-19T14:07:54.000Z,48
2019-05-19T14:09:58.000Z,50
2019-05-19T14:11:29.000Z,51
2019-05-19T14:13:32.000Z,53
2019-05-19T14:14:58.000Z,53
2019-05-19T14:17:08.000Z,54
2019-05-19T14:18:36.000Z,55
2019-05-19T14:20:40.000Z,56
2019-05-19T14:22:05.000Z,56
2019-05-19T14:24:10.000Z,58
2019-05-19T14:25:39.000Z,59
2019-05-19T14:27:40.000Z,64
2019-05-19T14:29:07.000Z,65
2019-05-19T14:31:08.000Z,67
2019-05-19T14:32:32.000Z,69
2019-05-19T14:34:34.000Z,70
2019-05-19T14:36:03.000Z,71
2019-05-19T14:38:11.000Z,71
2019-05-19T14:39:40.000Z,71
2019-05-19T14:41:46.000Z,70
2019-05-19T14:43:10.000Z,70
2019-05-19T14:45:24.000Z,72
2019-05-19T14:46:54.000Z,74
2019-05-19T14:49:00.000Z,74
2019-05-19T14:50:26.000Z,74
2019-05-19T14:52:32.000Z,75
2019-05-19T14:53:55.000Z,76
2019-05-19T14:56:01.000Z,76
2019-05-19T14:57:25.000Z,76
2019-05-19T14:59:36.000Z,76
2019-05-19T15:01:03.000Z,75
2019-05-19T15:03:09.000Z,75
2019-05-19T15:04:34.000Z,75
2019-05-19T15:06:38.000Z,76
2019-05-19T15:08:07.000Z,76
2019-05-19T15:10:14.000Z,78
2019-05-19T15:11:38.000Z,78
2019-05-19T15:13:46.000Z,78
2019-05-19T15:15:20.000Z,77
2019-05-19T15:17:24.000Z,76
2019-05-19T15:18:53.000Z,77
2019-05-19T15:21:01.000Z,77
2019-05-19T15:22:31.000Z,75
2019-05-19T15:24:35.000Z,77
2019-05-19T15:26:05.000Z,78
2019-05-19T15:28:12.000Z,78
2019-05-19T15:29:39.000Z,77
2019-05-19T15:31:51.000Z,77
2019-05-19T15:33:21.000Z,76
2019-05-19T15:35:29.000Z,77
2019-05-19T15:37:02.000Z,78
2019-05-19T15:39:12.000Z,80
2019-05-19T15:40:44.000Z,80
2019-05-19T15:42:57.000Z,79
2019-05-19T15:44:30.000Z,79
2019-05-19T15:46:41.000Z,79
2019-05-19T15:48:10.000Z,79
2019-05-19T15:50:20.000Z,78
2019-05-19T15:51:49.000Z,77
2019-05-19T15:54:12.000Z,77
2019-05-19T15:55:42.000Z,77
2019-05-19T15:59:26.000Z,78
2019-05-19T16:00:18.000Z,78
2019-05-19T16:01:52.000Z,80
2019-05-19T16:04:04.000Z,79
2019-05-19T16:05:38.000Z,79
2019-05-19T16:07:56.000Z,78
2019-05-19T16:09:25.000Z,79
2019-05-19T16:13:09.000Z,79
2019-05-19T16:13:42.000Z,79
2019-05-19T16:15:18.000Z,79
2019-05-19T16:17:28.000Z,79
2019-05-19T16:18:55.000Z,80
2019-05-19T16:22:17.000Z,78
2019-05-19T16:23:39.000Z,78
2019-05-19T16:25:40.000Z,78
2019-05-19T16:27:02.000Z,78
2019-05-19T16:29:03.000Z,77
2019-05-19T16:30:25.000Z,77
2019-05-19T16:32:27.000Z,77
2019-05-19T16:33:50.000Z,77
2019-05-19T16:35:52.000Z,77
2019-05-19T16:37:14.000Z,76
2019-05-19T16:39:15.000Z,77
2019-05-19T16:40:37.000Z,77
2019-05-19T16:42:38.000Z,77
2019-05-19T16:44:00.000Z,76
2019-05-19T16:46:01.000Z,74
2019-05-19T16:47:24.000Z,74
2019-05-19T16:49:28.000Z,73
2019-05-19T16:50:51.000Z,73
2019-05-19T16:52:53.000Z,72
2019-05-19T16:54:16.000Z,72
2019-05-19T16:56:17.000Z,72
2019-05-19T16:57:39.000Z,71
2019-05-19T16:59:40.000Z,72
2019-05-19T17:01:02.000Z,71
2019-05-19T17:03:05.000Z,71
2019-05-19T17:04:29.000Z,70
2019-05-19T17:06:30.000Z,70
2019-05-19T17:07:53.000Z,71
2019-05-19T17:09:54.000Z,71
2019-05-19T17:11:16.000Z,71
2019-05-19T17:13:19.000Z,71
2019-05-19T17:14:42.000Z,70
2019-05-19T17:16:42.000Z,71
2019-05-19T17:18:05.000Z,70
2019-05-19T17:20:10.000Z,69
2019-05-19T17:21:33.000Z,69
2019-05-19T17:23:34.000Z,70
2019-05-19T17:24:56.000Z,70
2019-05-19T17:26:58.000Z,71
2019-05-19T17:28:20.000Z,71
2019-05-19T17:30:23.000Z,72
2019-05-19T17:31:45.000Z,72
2019-05-19T17:33:47.000Z,72
2019-05-19T17:35:09.000Z,73
2019-05-19T17:37:11.000Z,73
2019-05-19T17:38:34.000Z,73
2019-05-19T17:40:35.000Z,72
2019-05-19T17:41:58.000Z,72
2019-05-19T17:43:59.000Z,71
2019-05-19T17:45:23.000Z,71
2019-05-19T17:47:24.000Z,71
2019-05-19T17:48:47.000Z,71
2019-05-19T17:50:49.000Z,73
2019-05-19T17:52:11.000Z,74
2019-05-19T17:54:12.000Z,75
2019-05-19T17:55:35.000Z,75
2019-05-19T17:57:37.000Z,75
2019-05-19T17:58:59.000Z,74
2019-05-19T18:01:01.000Z,74
2019-05-19T18:02:24.000Z,74
2019-05-19T18:04:25.000Z,74
2019-05-19T18:05:48.000Z,75
2019-05-19T18:07:53.000Z,75
2019-05-19T18:09:15.000Z,75
2019-05-19T18:11:19.000Z,76
2019-05-19T18:12:42.000Z,76
2019-05-19T18:14:47.000Z,76
2019-05-19T18:16:12.000Z,76
2019-05-19T18:18:15.000Z,76
2019-05-19T18:19:38.000Z,77
2019-05-19T18:21:40.000Z,76
2019-05-19T18:23:03.000Z,76
2019-05-19T18:25:05.000Z,76
2019-05-19T18:26:29.000Z,76
2019-05-19T18:28:32.000Z,75
2019-05-19T18:29:56.000Z,75
2019-05-19T18:31:58.000Z,75
2019-05-19T18:33:20.000Z,76
2019-05-19T18:35:24.000Z,75
2019-05-19T18:36:48.000Z,75
2019-05-19T18:38:49.000Z,76
2019-05-19T18:40:14.000Z,76
2019-05-19T18:42:18.000Z,76
2019-05-19T18:43:45.000Z,76
2019-05-19T18:45:47.000Z,76
2019-05-19T18:47:15.000Z,77
2019-05-19T18:49:20.000Z,77
2019-05-19T18:50:46.000Z,77
2019-05-19T18:52:54.000Z,77
2019-05-19T18:54:19.000Z,77
2019-05-19T18:56:31.000Z,77
2019-05-19T18:57:55.000Z,77
2019-05-19T19:00:02.000Z,77
2019-05-19T19:01:29.000Z,77
2019-05-19T19:03:31.000Z,78
2019-05-19T19:04:57.000Z,77
2019-05-19T19:07:01.000Z,79
2019-05-19T19:08:28.000Z,80
2019-05-19T19:10:33.000Z,80
2019-05-19T19:11:58.000Z,80
2019-05-19T19:14:08.000Z,81
2019-05-19T19:15:37.000Z,82
2019-05-19T19:17:41.000Z,81
2019-05-19T19:19:03.000Z,81
2019-05-19T19:21:09.000Z,81
2019-05-19T19:22:33.000Z,80
2019-05-19T19:24:36.000Z,80
2019-05-19T19:26:01.000Z,80
2019-05-19T19:28:06.000Z,81
2019-05-19T19:29:36.000Z,81
2019-05-19T19:31:41.000Z,82
2019-05-19T19:33:18.000Z,83
2019-05-19T19:35:22.000Z,83
2019-05-19T19:36:47.000Z,83
2019-05-19T19:38:55.000Z,83
2019-05-19T19:40:23.000Z,83
2019-05-19T19:42:28.000Z,83
2019-05-19T19:43:57.000Z,83
2019-05-19T19:46:06.000Z,83
2019-05-19T19:47:36.000Z,83
2019-05-19T19:49:42.000Z,84
2019-05-19T19:51:11.000Z,83
2019-05-19T19:53:16.000Z,84
2019-05-19T19:54:46.000Z,84
2019-05-19T19:56:51.000Z,85
2019-05-19T19:58:16.000Z,84
2019-05-19T20:00:26.000Z,84
2019-05-19T20:01:56.000Z,83
2019-05-19T20:04:10.000Z,83
2019-05-19T20:05:39.000Z,83
2019-05-19T20:07:41.000Z,84
2019-05-19T20:09:10.000Z,84
2019-05-19T20:11:18.000Z,84
2019-05-19T20:12:49.000Z,83
2019-05-19T20:14:56.000Z,83
2019-05-19T20:16:27.000Z,83
2019-05-19T20:18:35.000Z,83
2019-05-19T20:20:04.000Z,83
2019-05-19T20:22:13.000Z,84
2019-05-19T20:23:43.000Z,85
2019-05-19T20:25:56.000Z,84
2019-05-19T20:27:25.000Z,84
2019-05-19T20:29:36.000Z,83
2019-05-19T20:31:04.000Z,83
2019-05-19T20:33:16.000Z,83
2019-05-19T20:34:45.000Z,83
2019-05-19T20:38:28.000Z,84
2019-05-19T20:39:02.000Z,84
2019-05-19T20:40:32.000Z,83
2019-05-19T20:42:38.000Z,83
2019-05-19T20:44:12.000Z,83
2019-05-19T20:46:21.000Z,83
2019-05-19T20:47:51.000Z,83
2019-05-19T20:50:02.000Z,84
2019-05-19T20:51:35.000Z,83
2019-05-19T20:53:44.000Z,84
2019-05-19T20:55:14.000Z,84
2019-05-19T20:57:20.000Z,83
2019-05-19T20:58:50.000Z,83
2019-05-19T21:01:00.000Z,83
2019-05-19T21:02:30.000Z,83
2019-05-19T21:04:39.000Z,83
2019-05-19T21:06:11.000Z,84
2019-05-19T21:09:37.000Z,83
2019-05-19T21:10:59.000Z,83
2019-05-19T21:13:00.000Z,83
2019-05-19T21:14:22.000Z,84
2019-05-19T21:16:23.000Z,85
2019-05-19T21:17:45.000Z,85
2019-05-19T21:19:46.000Z,85
2019-05-19T21:21:08.000Z,84
2019-05-19T21:23:08.000Z,84
2019-05-19T21:24:30.000Z,84
2019-05-19T21:26:31.000Z,84
2019-05-19T21:27:53.000Z,84
2019-05-19T21:29:54.000Z,84
2019-05-19T21:31:16.000Z,84
2019-05-19T21:33:17.000Z,85
2019-05-19T21:34:39.000Z,85
2019-05-19T21:36:40.000Z,84
2019-05-19T21:38:02.000Z,84
2019-05-19T21:40:05.000Z,85
2019-05-19T21:41:30.000Z,85
2019-05-19T21:43:33.000Z,84
2019-05-19T21:44:55.000Z,84
2019-05-19T21:46:57.000Z,84
2019-05-19T21:48:19.000Z,84
2019-05-19T21:50:21.000Z,84
2019-05-19T21:51:43.000Z,84
2019-05-19T21:53:44.000Z,84
2019-05-19T21:55:06.000Z,85
2019-05-19T21:57:08.000Z,85
2019-05-19T21:58:32.000Z,85
2019-05-19T22:00:33.000Z,85
2019-05-19T22:01:57.000Z,84
2019-05-19T22:03:58.000Z,85
2019-05-19T22:05:20.000Z,86
2019-05-19T22:07:22.000Z,86
2019-05-19T22:08:45.000Z,86
2019-05-19T22:10:46.000Z,85
2019-05-19T22:12:10.000Z,85
2019-05-19T22:14:12.000Z,86
2019-05-19T22:15:36.000Z,87
2019-05-19T22:17:37.000Z,86
2019-05-19T22:19:01.000Z,86
2019-05-19T22:21:04.000Z,86
2019-05-19T22:22:27.000Z,86
2019-05-19T22:24:28.000Z,87
2019-05-19T22:25:50.000Z,87
2019-05-19T22:27:51.000Z,87
2019-05-19T22:29:13.000Z,87
2019-05-19T22:31:16.000Z,86
2019-05-19T22:32:41.000Z,86
2019-05-19T22:34:44.000Z,86
2019-05-19T22:36:07.000Z,86
2019-05-19T22:38:11.000Z,87
2019-05-19T22:39:34.000Z,87
2019-05-19T22:41:37.000Z,86
2019-05-19T22:43:00.000Z,86
2019-05-19T22:45:04.000Z,87
2019-05-19T22:46:28.000Z,87
2019-05-19T22:48:30.000Z,87
2019-05-19T22:49:53.000Z,87
2019-05-19T22:51:56.000Z,87
2019-05-19T22:53:20.000Z,87
2019-05-19T22:55:21.000Z,87
2019-05-19T22:56:46.000Z,87
2019-05-19T22:58:48.000Z,87
2019-05-19T23:00:14.000Z,87
2019-05-19T23:02:18.000Z,86
2019-05-19T23:03:42.000Z,86
2019-05-19T23:05:45.000Z,87
2019-05-19T23:07:07.000Z,87
2019-05-19T23:09:11.000Z,86
2019-05-19T23:10:35.000Z,87
2019-05-19T23:12:38.000Z,87
2019-05-19T23:14:02.000Z,87
2019-05-19T23:16:06.000Z,87
2019-05-19T23:17:33.000Z,87
2019-05-19T23:19:37.000Z,88
2019-05-19T23:21:04.000Z,88
2019-05-19T23:23:08.000Z,88
2019-05-19T23:24:33.000Z,88
2019-05-19T23:26:35.000Z,88
2019-05-19T23:27:58.000Z,88
2019-05-19T23:30:03.000Z,88
2019-05-19T23:31:28.000Z,88
2019-05-19T23:33:34.000Z,88
2019-05-19T23:34:59.000Z,88
2019-05-19T23:37:04.000Z,87
2019-05-19T23:38:27.000Z,87
2019-05-19T23:40:31.000Z,87
2019-05-19T23:41:59.000Z,87
2019-05-19T23:44:06.000Z,87
2019-05-19T23:45:29.000Z,87
2019-05-19T23:47:41.000Z,88
2019-05-19T23:49:04.000Z,88
2019-05-19T23:51:08.000Z,88
2019-05-19T23:52:34.000Z,87
2019-05-19T23:54:38.000Z,87
2019-05-19T23:56:08.000Z,88
2019-05-19T23:58:18.000Z,88
2019-05-19T23:59:43.000Z,88
